createdAt,value
2022-11-26T00:00:33.949Z,84.65
2022-11-26T00:03:00.869Z,83.17
2022-11-26T00:05:31.637Z,84.02
2022-11-26T00:08:00.521Z,85.61
2022-11-26T00:10:31.116Z,85.13
2022-11-26T00:12:58.268Z,84.33
2022-11-26T00:15:30.843Z,84.00
2022-11-26T00:17:58.240Z,83.94
2022-11-26T00:20:31.554Z,83.64
2022-11-26T00:23:04.480Z,84.36
2022-11-26T00:25:43.949Z,84.90
2022-11-26T00:28:31.548Z,84.72
2022-11-26T00:31:01.753Z,86.48
2022-11-26T00:33:29.954Z,86.08
2022-11-26T00:36:04.147Z,87.71
2022-11-26T00:38:31.468Z,87.35
2022-11-26T00:40:59.427Z,86.47
2022-11-26T00:43:26.345Z,86.93
2022-11-26T00:45:53.124Z,87.38
2022-11-26T00:48:20.058Z,88.48
2022-11-26T00:50:51.650Z,89.58
2022-11-26T00:53:22.508Z,88.60
2022-11-26T00:55:50.235Z,88.26
2022-11-26T00:58:27.375Z,89.25
2022-11-26T01:00:55.862Z,89.07
2022-11-26T01:03:22.927Z,88.99
2022-11-26T01:05:53.901Z,88.83
2022-11-26T01:08:28.963Z,90.05
2022-11-26T01:10:55.753Z,89.64
2022-11-26T01:13:22.553Z,89.71
2022-11-26T01:15:49.496Z,89.78
2022-11-26T01:18:20.147Z,89.74
2022-11-26T01:20:47.534Z,90.67
2022-11-26T01:23:17.046Z,92.02
2022-11-26T01:25:44.831Z,91.91
2022-11-26T01:28:18.523Z,91.34
2022-11-26T01:30:45.986Z,92.19
2022-11-26T01:33:12.722Z,91.72
2022-11-26T01:35:39.678Z,91.07
2022-11-26T01:38:06.839Z,90.71
2022-11-26T01:40:47.129Z,91.45
2022-11-26T01:43:17.192Z,92.46
2022-11-26T01:45:43.994Z,93.53
2022-11-26T01:48:34.484Z,92.30
2022-11-26T01:51:06.854Z,91.72
2022-11-26T01:53:33.510Z,91.34
2022-11-26T01:56:12.380Z,92.23
2022-11-26T01:58:44.704Z,93.16
2022-11-26T02:01:11.642Z,93.34
2022-11-26T02:04:02.365Z,94.63
2022-11-26T02:06:34.244Z,94.62
2022-11-26T02:09:06.882Z,94.56
2022-11-26T02:11:33.956Z,94.48
2022-11-26T02:14:12.779Z,94.30
2022-11-26T02:16:54.073Z,94.20
2022-11-26T02:19:33.230Z,95.00
2022-11-26T02:22:13.390Z,94.48
2022-11-26T02:24:59.259Z,93.51
2022-11-26T02:27:34.798Z,92.58
2022-11-26T02:30:09.270Z,93.12
2022-11-26T02:33:02.156Z,93.69
2022-11-26T02:35:53.350Z,93.93
2022-11-26T02:38:24.495Z,93.41
2022-11-26T02:40:52.620Z,94.84
2022-11-26T02:43:20.658Z,95.67
2022-11-26T02:45:52.460Z,98.46
2022-11-26T02:48:26.762Z,100.00
2022-11-26T02:51:05.258Z,100.00
2022-11-26T02:53:38.092Z,100.00
2022-11-26T02:56:25.347Z,100.00
2022-11-26T02:58:54.500Z,100.00
2022-11-26T03:01:45.938Z,100.00
2022-11-26T03:04:19.965Z,100.00
2022-11-26T03:06:47.733Z,100.00
2022-11-26T03:09:17.979Z,100.00
2022-11-26T03:11:45.161Z,100.00
2022-11-26T03:14:12.376Z,100.00
2022-11-26T03:16:39.101Z,100.00
2022-11-26T03:19:06.296Z,100.00
2022-11-26T03:21:33.662Z,100.00
2022-11-26T03:24:00.626Z,100.00
2022-11-26T03:26:27.482Z,100.00
2022-11-26T03:28:54.363Z,100.00
2022-11-26T03:31:21.299Z,100.00
2022-11-26T03:33:48.694Z,100.00
2022-11-26T03:36:15.471Z,100.00
2022-11-26T03:38:42.255Z,99.54
2022-11-26T03:41:09.172Z,98.84
2022-11-26T03:43:36.130Z,99.76
2022-11-26T03:46:02.951Z,98.60
2022-11-26T03:48:29.992Z,99.68
2022-11-26T03:50:57.151Z,100.00
2022-11-26T03:53:23.929Z,100.00
2022-11-26T03:55:51.016Z,100.00
2022-11-26T03:58:18.007Z,99.24
2022-11-26T04:00:45.087Z,98.36
2022-11-26T04:03:12.316Z,97.73
2022-11-26T04:05:39.672Z,98.56
2022-11-26T04:08:06.851Z,100.00
2022-11-26T04:10:33.684Z,100.00
2022-11-26T04:13:00.603Z,100.00
2022-11-26T04:15:27.522Z,100.00
2022-11-26T04:17:54.468Z,100.00
2022-11-26T04:20:21.904Z,100.00
2022-11-26T04:22:49.475Z,100.00
2022-11-26T04:25:17.307Z,100.00
2022-11-26T04:27:44.555Z,100.00
2022-11-26T04:30:11.949Z,100.00
2022-11-26T04:32:40.789Z,100.00
2022-11-26T04:35:10.261Z,100.00
2022-11-26T04:37:40.269Z,100.00
2022-11-26T04:40:12.595Z,100.00
2022-11-26T04:42:39.347Z,100.00
2022-11-26T04:45:06.803Z,100.00
2022-11-26T04:47:33.896Z,100.00
2022-11-26T04:50:00.665Z,100.00
2022-11-26T04:52:27.409Z,100.00
2022-11-26T04:54:54.491Z,100.00
2022-11-26T04:57:21.300Z,100.00
2022-11-26T04:59:49.548Z,100.00
2022-11-26T05:02:16.883Z,100.00
2022-11-26T05:04:43.828Z,100.00
2022-11-26T05:07:11.088Z,100.00
2022-11-26T05:09:38.021Z,100.00
2022-11-26T05:12:04.952Z,100.00
2022-11-26T05:14:32.008Z,100.00
2022-11-26T05:16:59.149Z,100.00
2022-11-26T05:19:26.287Z,100.00
2022-11-26T05:21:53.027Z,100.00
2022-11-26T05:24:19.818Z,100.00
2022-11-26T05:26:46.755Z,100.00
2022-11-26T05:29:16.443Z,100.00
2022-11-26T05:31:43.416Z,100.00
2022-11-26T05:34:19.640Z,100.00
2022-11-26T05:36:46.493Z,100.00
2022-11-26T05:39:13.649Z,100.00
2022-11-26T05:41:40.508Z,100.00
2022-11-26T05:44:07.288Z,100.00
2022-11-26T05:46:35.672Z,100.00
2022-11-26T05:49:02.511Z,100.00
2022-11-26T05:51:29.187Z,100.00
2022-11-26T05:53:56.029Z,100.00
2022-11-26T05:56:22.852Z,100.00
2022-11-26T05:58:49.767Z,100.00
2022-11-26T06:01:19.175Z,100.00
2022-11-26T06:03:46.000Z,100.00
2022-11-26T06:06:21.839Z,100.00
2022-11-26T06:08:48.900Z,97.99
2022-11-26T06:11:15.669Z,93.18
2022-11-26T06:13:42.585Z,89.86
2022-11-26T06:16:09.750Z,87.23
2022-11-26T06:18:39.805Z,87.74
2022-11-26T06:21:07.848Z,89.07
2022-11-26T06:23:34.972Z,87.22
2022-11-26T06:26:06.889Z,85.59
2022-11-26T06:28:33.761Z,81.36
2022-11-26T06:31:00.720Z,81.17
2022-11-26T06:33:27.829Z,81.79
2022-11-26T06:36:06.139Z,83.04
2022-11-26T06:38:33.497Z,79.53
2022-11-26T06:41:30.496Z,76.61
2022-11-26T06:47:22.306Z,78.61
2022-11-26T06:55:06.109Z,77.09
2022-11-26T07:00:51.447Z,75.28
2022-11-26T07:03:24.347Z,73.77
2022-11-26T07:06:02.661Z,73.73
2022-11-26T07:08:41.705Z,72.91
2022-11-26T07:11:17.080Z,72.27
2022-11-26T07:13:44.575Z,73.30
2022-11-26T07:16:15.175Z,72.78
2022-11-26T07:19:12.633Z,72.55
2022-11-26T07:21:39.706Z,71.49
2022-11-26T07:24:10.468Z,70.42
2022-11-26T07:26:37.416Z,69.79
2022-11-26T07:29:04.365Z,71.27
2022-11-26T07:34:53.909Z,71.32
2022-11-26T07:37:26.524Z,71.69
2022-11-26T07:42:35.208Z,71.09
2022-11-26T07:45:02.197Z,71.48
2022-11-26T07:47:29.125Z,72.16
2022-11-26T07:49:56.712Z,73.01
2022-11-26T07:52:23.953Z,74.66
2022-11-26T07:55:02.178Z,72.06
2022-11-26T07:57:55.150Z,67.66
2022-11-26T08:00:23.420Z,65.38
2022-11-26T08:02:54.153Z,64.56
2022-11-26T08:05:21.403Z,67.55
2022-11-26T08:07:48.464Z,66.77
2022-11-26T08:10:15.758Z,66.86
2022-11-26T08:12:49.197Z,68.54
2022-11-26T08:15:16.296Z,68.52
2022-11-26T08:17:43.114Z,66.02
2022-11-26T08:20:10.587Z,66.13
2022-11-26T08:22:39.010Z,69.87
2022-11-26T08:25:06.445Z,72.54
2022-11-26T08:27:33.880Z,72.76
2022-11-26T08:30:06.149Z,69.61
2022-11-26T08:32:37.208Z,71.95
2022-11-26T08:38:29.123Z,70.05
2022-11-26T08:40:56.229Z,70.06
2022-11-26T08:43:39.850Z,71.01
2022-11-26T08:46:13.091Z,71.53
2022-11-26T08:48:40.275Z,70.61
2022-11-26T08:51:13.118Z,70.45
2022-11-26T08:53:40.608Z,68.24
2022-11-26T08:56:40.504Z,65.79
2022-11-26T08:59:07.917Z,63.77
2022-11-26T09:01:35.591Z,63.70
2022-11-26T09:04:04.344Z,66.61
2022-11-26T09:06:37.954Z,63.45
2022-11-26T09:09:15.532Z,62.59
2022-11-26T09:11:53.227Z,62.63
2022-11-26T09:14:25.206Z,63.70
2022-11-26T09:16:54.309Z,63.88
2022-11-26T09:19:21.322Z,60.54
2022-11-26T09:21:48.567Z,61.07
2022-11-26T09:24:17.684Z,63.44
2022-11-26T09:26:45.306Z,63.63
2022-11-26T09:29:17.735Z,64.27
2022-11-26T09:32:15.272Z,63.58
2022-11-26T09:34:33.486Z,64.01
2022-11-26T09:37:01.609Z,64.20
2022-11-26T09:39:55.228Z,61.69
2022-11-26T09:42:37.261Z,62.49
2022-11-26T09:45:27.360Z,60.81
2022-11-26T09:47:54.762Z,62.71
2022-11-26T09:50:29.050Z,61.73
2022-11-26T09:53:03.486Z,61.52
2022-11-26T09:55:50.145Z,65.08
2022-11-26T09:58:27.535Z,69.19
2022-11-26T10:00:57.672Z,69.42
2022-11-26T10:03:32.197Z,61.49
2022-11-26T10:06:14.624Z,64.58
2022-11-26T10:08:57.339Z,59.87
2022-11-26T10:11:58.055Z,60.98
2022-11-26T11:32:44.248Z,55.50
2022-11-26T11:35:25.969Z,55.06
2022-11-26T11:37:59.056Z,55.12
2022-11-26T11:40:30.608Z,54.40
2022-11-26T11:43:01.805Z,53.39
2022-11-26T11:45:36.934Z,53.32
2022-11-26T11:48:20.358Z,53.72
2022-11-26T11:51:21.553Z,54.15
2022-11-26T11:53:51.684Z,53.49
2022-11-26T11:56:27.591Z,52.63
2022-11-26T11:59:29.071Z,52.83
2022-11-26T12:02:37.660Z,52.49
2022-11-26T12:05:33.739Z,51.22
2022-11-26T12:08:12.850Z,51.63
2022-11-26T12:11:01.923Z,52.14
2022-11-26T12:13:35.256Z,52.16
2022-11-26T12:16:16.259Z,52.43
2022-11-26T12:22:01.587Z,52.28
2022-11-26T12:24:33.940Z,51.23
2022-11-26T12:27:16.210Z,50.91
2022-11-26T12:30:19.907Z,51.43
2022-11-26T12:33:03.393Z,50.62
2022-11-26T12:41:50.166Z,49.89
2022-11-26T12:44:45.780Z,49.65
2022-11-26T12:50:53.518Z,51.40
2022-11-26T13:01:35.396Z,50.03
2022-11-26T13:04:38.120Z,50.81
2022-11-26T13:07:40.096Z,51.14
2022-11-26T13:10:32.071Z,51.58
2022-11-26T13:13:24.560Z,50.30
2022-11-26T13:16:08.863Z,50.34
2022-11-26T13:18:50.995Z,50.38
2022-11-26T13:21:49.959Z,50.41
2022-11-26T13:24:41.969Z,49.98
2022-11-26T13:27:30.851Z,49.85
2022-11-26T13:30:08.693Z,51.03
2022-11-26T13:32:35.466Z,51.82
2022-11-26T13:35:53.897Z,51.02
2022-11-26T13:38:46.035Z,51.62
2022-11-26T13:41:48.489Z,51.16
2022-11-26T13:44:40.123Z,50.95
2022-11-26T13:47:13.706Z,50.80
2022-11-26T13:49:49.183Z,50.11
2022-11-26T13:52:24.590Z,50.19
2022-11-26T13:55:04.751Z,49.84
2022-11-26T13:57:41.267Z,49.79
2022-11-26T14:00:09.620Z,49.64
2022-11-26T14:02:42.833Z,49.89
2022-11-26T14:05:17.418Z,49.19
2022-11-26T14:07:45.856Z,49.71
2022-11-26T14:10:34.344Z,50.74
2022-11-26T14:13:12.804Z,50.78
2022-11-26T14:15:42.280Z,51.28
2022-11-26T14:18:14.850Z,50.69
2022-11-26T14:21:00.439Z,51.07
2022-11-26T14:23:51.996Z,50.93
2022-11-26T14:26:27.504Z,51.32
2022-11-26T14:29:13.135Z,51.61
2022-11-26T14:31:49.729Z,51.02
2022-11-26T14:34:41.209Z,51.91
2022-11-26T14:37:17.114Z,51.06
2022-11-26T14:39:44.402Z,51.35
2022-11-26T14:42:18.636Z,51.71
2022-11-26T14:44:46.058Z,51.21
2022-11-26T14:47:21.814Z,51.11
2022-11-26T14:50:00.718Z,56.55
2022-11-26T14:52:46.502Z,52.52
2022-11-26T14:55:24.773Z,52.10
2022-11-26T14:57:56.601Z,53.14
2022-11-26T15:00:26.612Z,54.91
2022-11-26T15:02:54.486Z,55.49
2022-11-26T15:05:33.359Z,57.38
2022-11-26T15:08:05.090Z,58.18
2022-11-26T15:10:45.497Z,58.21
2022-11-26T15:13:38.457Z,59.88
2022-11-26T15:16:32.530Z,60.38
2022-11-26T15:19:03.334Z,61.42
2022-11-26T15:21:30.807Z,61.09
2022-11-26T15:24:01.147Z,61.28
2022-11-26T15:26:35.467Z,61.76
2022-11-26T15:29:12.727Z,61.94
2022-11-26T15:31:41.981Z,61.61
2022-11-26T15:34:15.306Z,61.91
2022-11-26T15:36:42.716Z,62.19
2022-11-26T15:39:27.886Z,63.21
2022-11-26T15:41:58.024Z,63.89
2022-11-26T15:44:28.283Z,64.00
2022-11-26T15:46:57.665Z,64.51
2022-11-26T15:49:39.274Z,65.11
2022-11-26T15:52:14.406Z,66.47
2022-11-26T15:57:41.300Z,72.26
2022-11-26T16:00:24.054Z,65.95
2022-11-26T16:02:52.705Z,65.91
2022-11-26T16:05:39.358Z,66.21
2022-11-26T16:08:27.656Z,67.43
2022-11-26T16:10:57.501Z,67.61
2022-11-26T16:13:50.643Z,67.28
2022-11-26T16:16:25.609Z,67.97
2022-11-26T16:19:01.303Z,68.05
2022-11-26T16:21:34.051Z,69.60
2022-11-26T16:24:07.174Z,68.84
2022-11-26T16:27:18.279Z,69.53
2022-11-26T16:29:45.905Z,69.31
2022-11-26T16:32:15.022Z,69.43
2022-11-26T16:34:42.131Z,68.75
2022-11-26T16:37:43.254Z,70.24
2022-11-26T16:40:16.262Z,69.86
2022-11-26T16:42:43.370Z,70.04
2022-11-26T16:45:12.536Z,70.44
2022-11-26T16:47:53.563Z,71.00
2022-11-26T16:50:26.088Z,70.91
2022-11-26T16:52:54.517Z,71.17
2022-11-26T16:55:27.072Z,71.46
2022-11-26T16:57:57.076Z,71.31
2022-11-26T17:00:26.207Z,71.49
2022-11-26T17:02:54.632Z,71.13
2022-11-26T17:05:22.897Z,71.53
2022-11-26T17:07:53.689Z,72.03
2022-11-26T17:10:23.421Z,70.52
2022-11-26T17:12:50.677Z,71.24
2022-11-26T17:15:21.011Z,71.55
2022-11-26T17:17:50.781Z,72.14
2022-11-26T17:20:24.699Z,72.40
2022-11-26T17:22:52.333Z,72.23
2022-11-26T17:25:19.315Z,71.90
2022-11-26T17:27:47.865Z,71.95
2022-11-26T17:30:23.243Z,71.92
2022-11-26T17:32:50.724Z,72.76
2022-11-26T17:35:17.720Z,72.99
2022-11-26T17:37:45.375Z,73.42
2022-11-26T17:40:23.231Z,73.71
2022-11-26T17:42:50.843Z,74.89
2022-11-26T17:45:18.091Z,74.99
2022-11-26T17:47:47.791Z,74.95
2022-11-26T17:50:22.154Z,74.65
2022-11-26T17:52:50.555Z,74.45
2022-11-26T17:55:20.543Z,75.29
2022-11-26T17:57:55.504Z,75.61
2022-11-26T18:00:28.428Z,75.92
2022-11-26T18:02:58.666Z,76.78
2022-11-26T18:05:25.959Z,77.39
2022-11-26T18:07:55.691Z,77.52
2022-11-26T18:10:23.738Z,77.91
2022-11-26T18:12:53.655Z,77.50
2022-11-26T18:15:25.935Z,77.77
2022-11-26T18:17:55.216Z,77.21
2022-11-26T18:20:25.160Z,77.83
2022-11-26T18:22:53.970Z,77.80
2022-11-26T18:25:21.904Z,77.05
2022-11-26T18:27:58.504Z,76.78
2022-11-26T18:30:25.704Z,75.74
2022-11-26T18:32:52.800Z,77.67
2022-11-26T18:35:20.123Z,78.27
2022-11-26T18:37:47.005Z,78.53
2022-11-26T18:40:17.250Z,79.15
2022-11-26T18:42:44.588Z,79.16
2022-11-26T18:45:15.713Z,80.25
2022-11-26T18:47:42.889Z,80.53
2022-11-26T18:50:25.003Z,80.53
2022-11-26T18:52:53.675Z,81.04
2022-11-26T18:55:20.476Z,81.41
2022-11-26T18:58:06.645Z,81.99
2022-11-26T19:00:35.021Z,82.00
2022-11-26T19:03:02.308Z,82.50
2022-11-26T19:05:29.211Z,82.58
2022-11-26T19:07:56.369Z,82.27
2022-11-26T19:10:23.386Z,82.84
2022-11-26T19:12:50.243Z,83.99
2022-11-26T19:15:17.113Z,85.20
2022-11-26T19:17:43.938Z,85.02
2022-11-26T19:20:10.854Z,84.32
2022-11-26T19:22:38.044Z,84.15
2022-11-26T19:25:15.881Z,83.14
2022-11-26T19:27:43.151Z,84.88
2022-11-26T19:30:10.458Z,84.44
2022-11-26T19:32:37.419Z,85.74
2022-11-26T19:35:06.207Z,85.56
2022-11-26T19:37:33.283Z,86.52
2022-11-26T19:40:02.582Z,87.04
2022-11-26T19:42:30.182Z,86.69
2022-11-26T19:44:57.298Z,87.25
2022-11-26T19:47:26.733Z,86.39
2022-11-26T19:49:53.728Z,87.55
2022-11-26T19:52:20.564Z,87.13
2022-11-26T19:54:48.487Z,87.14
2022-11-26T19:57:15.461Z,86.98
2022-11-26T19:59:42.326Z,87.34
2022-11-26T20:02:27.563Z,87.31
2022-11-26T20:04:55.480Z,87.46
2022-11-26T20:07:22.735Z,86.97
2022-11-26T20:09:53.567Z,86.88
2022-11-26T20:15:45.452Z,87.64
2022-11-26T20:18:22.426Z,87.80
2022-11-26T20:21:04.436Z,87.51
2022-11-26T20:23:31.644Z,88.32
2022-11-26T20:26:08.728Z,89.29
2022-11-26T20:28:39.693Z,89.33
2022-11-26T20:31:06.571Z,89.50
2022-11-26T20:33:35.159Z,89.55
2022-11-26T20:36:06.275Z,89.61
2022-11-26T20:38:33.222Z,90.15
2022-11-26T20:41:00.388Z,90.55
2022-11-26T20:43:27.342Z,90.49
2022-11-26T20:46:06.086Z,90.37
2022-11-26T20:48:34.603Z,90.81
2022-11-26T20:51:07.167Z,91.11
2022-11-26T20:53:47.306Z,90.71
2022-11-26T20:56:17.582Z,91.63
2022-11-26T20:58:48.036Z,91.81
2022-11-26T21:01:26.458Z,91.17
2022-11-26T21:04:23.292Z,92.59
2022-11-26T21:07:13.065Z,93.88
2022-11-26T21:09:40.690Z,94.77
2022-11-26T21:12:07.844Z,95.20
2022-11-26T21:14:53.090Z,95.03
2022-11-26T21:17:20.560Z,94.38
2022-11-26T21:19:48.704Z,95.56
2022-11-26T21:22:15.636Z,95.68
2022-11-26T21:24:44.251Z,95.08
2022-11-26T21:27:11.060Z,94.98
2022-11-26T21:29:38.533Z,94.90
2022-11-26T21:32:06.032Z,94.78
2022-11-26T21:34:33.529Z,94.91
2022-11-26T21:37:05.283Z,93.94
2022-11-26T21:39:32.093Z,93.22
2022-11-26T21:41:59.257Z,94.59
2022-11-26T21:44:26.505Z,95.02
2022-11-26T21:46:53.313Z,93.88
2022-11-26T21:49:20.404Z,94.83
2022-11-26T21:52:03.424Z,95.56
2022-11-26T21:54:31.876Z,95.68
2022-11-26T21:57:20.205Z,95.29
2022-11-26T21:59:50.798Z,94.73
2022-11-26T22:02:17.755Z,95.02
2022-11-26T22:04:49.544Z,96.12
2022-11-26T22:07:16.895Z,96.11
2022-11-26T22:09:43.917Z,96.72
2022-11-26T22:12:19.357Z,97.92
2022-11-26T22:14:50.247Z,97.55
2022-11-26T22:17:33.365Z,98.24
2022-11-26T22:20:00.350Z,98.95
2022-11-26T22:22:27.532Z,100.00
2022-11-26T22:25:21.158Z,99.29
2022-11-26T22:27:48.406Z,100.00
2022-11-26T22:30:25.552Z,100.00
2022-11-26T22:32:52.375Z,100.00
2022-11-26T22:35:19.262Z,100.00
2022-11-26T22:37:46.219Z,99.70
2022-11-26T22:40:13.368Z,99.72
2022-11-26T22:42:41.313Z,99.35
2022-11-26T22:45:09.441Z,100.00
2022-11-26T22:47:36.420Z,100.00
2022-11-26T22:50:03.493Z,100.00
2022-11-26T22:52:30.806Z,100.00
2022-11-26T22:54:57.857Z,100.00
2022-11-26T22:57:29.906Z,100.00
2022-11-26T22:59:56.890Z,100.00
2022-11-26T23:02:24.578Z,100.00
2022-11-26T23:04:52.511Z,100.00
2022-11-26T23:07:19.754Z,100.00
2022-11-26T23:09:47.295Z,100.00
2022-11-26T23:12:14.032Z,100.00
2022-11-26T23:14:40.900Z,100.00
2022-11-26T23:17:07.753Z,100.00
2022-11-26T23:19:34.433Z,100.00
2022-11-26T23:22:01.279Z,100.00
2022-11-26T23:24:30.113Z,100.00
2022-11-26T23:26:56.876Z,100.00
2022-11-26T23:29:23.869Z,100.00
2022-11-26T23:32:13.762Z,100.00
2022-11-26T23:34:41.043Z,100.00
2022-11-26T23:37:07.998Z,100.00
2022-11-26T23:39:35.072Z,100.00
2022-11-26T23:42:01.957Z,100.00
2022-11-26T23:44:28.880Z,100.00
2022-11-26T23:46:55.583Z,100.00
2022-11-26T23:49:23.254Z,100.00
2022-11-26T23:51:49.986Z,100.00
2022-11-26T23:54:16.980Z,100.00
2022-11-26T23:56:44.898Z,100.00
2022-11-26T23:59:12.529Z,100.00
